sensor_id;sensor_type;location;lat;lon;timestamp;P1;durP1;ratioP1;P2;durP2;ratioP2
739;SDS011;354;42.694;23.336;2023-05-17T00:01:58;17.10;;;15.37;;
739;SDS011;354;42.694;23.336;2023-05-17T00:05:08;16.87;;;14.77;;
739;SDS011;354;42.694;23.336;2023-05-17T00:08:36;16.87;;;15.10;;
739;SDS011;354;42.694;23.336;2023-05-17T00:12:02;18.73;;;14.13;;
739;SDS011;354;42.694;23.336;2023-05-17T00:15:27;20.53;;;15.50;;
739;SDS011;354;42.694;23.336;2023-05-17T00:18:52;20.77;;;14.27;;
739;SDS011;354;42.694;23.336;2023-05-17T00:22:18;18.53;;;15.23;;
739;SDS011;354;42.694;23.336;2023-05-17T00:25:43;16.37;;;14.70;;
739;SDS011;354;42.694;23.336;2023-05-17T00:29:09;17.77;;;15.50;;
739;SDS011;354;42.694;23.336;2023-05-17T00:32:34;24.03;;;20.30;;
739;SDS011;354;42.694;23.336;2023-05-17T00:35:59;17.20;;;15.40;;
739;SDS011;354;42.694;23.336;2023-05-17T00:39:10;19.10;;;16.63;;
739;SDS011;354;42.694;23.336;2023-05-17T00:42:20;20.00;;;16.23;;
739;SDS011;354;42.694;23.336;2023-05-17T00:45:28;20.73;;;15.90;;
739;SDS011;354;42.694;23.336;2023-05-17T00:48:50;19.00;;;17.17;;
739;SDS011;354;42.694;23.336;2023-05-17T00:51:38;18.63;;;16.73;;
739;SDS011;354;42.694;23.336;2023-05-17T00:55:04;21.17;;;17.53;;
739;SDS011;354;42.694;23.336;2023-05-17T00:58:16;21.93;;;18.30;;
739;SDS011;354;42.694;23.336;2023-05-17T01:01:25;20.57;;;16.83;;
739;SDS011;354;42.694;23.336;2023-05-17T01:04:49;18.90;;;15.63;;
739;SDS011;354;42.694;23.336;2023-05-17T01:08:17;18.60;;;16.70;;
739;SDS011;354;42.694;23.336;2023-05-17T01:14:32;19.60;;;17.07;;
739;SDS011;354;42.694;23.336;2023-05-17T01:20:57;19.33;;;16.33;;
739;SDS011;354;42.694;23.336;2023-05-17T01:24:29;22.57;;;16.33;;
739;SDS011;354;42.694;23.336;2023-05-17T01:27:56;23.97;;;17.80;;
739;SDS011;354;42.694;23.336;2023-05-17T01:31:06;30.97;;;18.67;;
739;SDS011;354;42.694;23.336;2023-05-17T01:34:35;20.33;;;18.13;;
739;SDS011;354;42.694;23.336;2023-05-17T01:37:30;24.73;;;18.73;;
739;SDS011;354;42.694;23.336;2023-05-17T01:41:15;23.27;;;16.97;;
739;SDS011;354;42.694;23.336;2023-05-17T01:47:52;23.33;;;17.30;;
739;SDS011;354;42.694;23.336;2023-05-17T01:50:57;23.20;;;17.23;;
739;SDS011;354;42.694;23.336;2023-05-17T01:54:27;19.90;;;15.87;;
739;SDS011;354;42.694;23.336;2023-05-17T01:57:37;25.00;;;18.77;;
739;SDS011;354;42.694;23.336;2023-05-17T02:01:07;19.87;;;15.23;;
739;SDS011;354;42.694;23.336;2023-05-17T02:04:35;19.03;;;16.10;;
739;SDS011;354;42.694;23.336;2023-05-17T02:08:00;17.63;;;14.97;;
739;SDS011;354;42.694;23.336;2023-05-17T02:11:27;19.33;;;15.10;;
739;SDS011;354;42.694;23.336;2023-05-17T02:14:53;18.00;;;14.67;;
739;SDS011;354;42.694;23.336;2023-05-17T02:18:10;24.80;;;15.70;;
739;SDS011;354;42.694;23.336;2023-05-17T02:21:19;18.20;;;14.77;;
739;SDS011;354;42.694;23.336;2023-05-17T02:24:51;20.03;;;15.03;;
739;SDS011;354;42.694;23.336;2023-05-17T02:28:16;21.53;;;15.80;;
739;SDS011;354;42.694;23.336;2023-05-17T02:31:31;20.67;;;15.83;;
739;SDS011;354;42.694;23.336;2023-05-17T02:34:57;19.77;;;15.30;;
739;SDS011;354;42.694;23.336;2023-05-17T02:38:22;18.83;;;15.60;;
739;SDS011;354;42.694;23.336;2023-05-17T02:41:47;16.77;;;14.77;;
739;SDS011;354;42.694;23.336;2023-05-17T02:45:13;21.67;;;15.87;;
739;SDS011;354;42.694;23.336;2023-05-17T02:48:38;22.67;;;16.60;;
739;SDS011;354;42.694;23.336;2023-05-17T02:52:03;19.50;;;16.07;;
739;SDS011;354;42.694;23.336;2023-05-17T02:55:28;21.50;;;16.53;;
739;SDS011;354;42.694;23.336;2023-05-17T02:58:55;18.03;;;15.73;;
739;SDS011;354;42.694;23.336;2023-05-17T03:02:22;18.23;;;15.37;;
739;SDS011;354;42.694;23.336;2023-05-17T03:05:47;18.47;;;16.67;;
739;SDS011;354;42.694;23.336;2023-05-17T03:09:02;20.83;;;15.83;;
739;SDS011;354;42.694;23.336;2023-05-17T03:12:27;21.23;;;16.30;;
739;SDS011;354;42.694;23.336;2023-05-17T03:15:54;21.00;;;16.90;;
739;SDS011;354;42.694;23.336;2023-05-17T03:19:21;21.67;;;16.83;;
739;SDS011;354;42.694;23.336;2023-05-17T03:22:47;24.23;;;16.67;;
739;SDS011;354;42.694;23.336;2023-05-17T03:26:16;22.90;;;16.87;;
739;SDS011;354;42.694;23.336;2023-05-17T03:29:44;21.33;;;17.60;;
739;SDS011;354;42.694;23.336;2023-05-17T03:33:11;27.00;;;18.40;;
739;SDS011;354;42.694;23.336;2023-05-17T03:36:37;25.07;;;17.87;;
739;SDS011;354;42.694;23.336;2023-05-17T03:40:01;28.53;;;18.17;;
739;SDS011;354;42.694;23.336;2023-05-17T03:43:10;25.23;;;18.47;;
739;SDS011;354;42.694;23.336;2023-05-17T03:46:38;29.10;;;18.67;;
739;SDS011;354;42.694;23.336;2023-05-17T03:50:04;28.00;;;18.90;;
739;SDS011;354;42.694;23.336;2023-05-17T03:53:36;28.50;;;19.47;;
739;SDS011;354;42.694;23.336;2023-05-17T03:57:04;25.33;;;19.93;;
739;SDS011;354;42.694;23.336;2023-05-17T04:00:32;30.50;;;19.10;;
739;SDS011;354;42.694;23.336;2023-05-17T04:03:58;28.40;;;19.53;;
739;SDS011;354;42.694;23.336;2023-05-17T04:07:25;23.50;;;21.00;;
739;SDS011;354;42.694;23.336;2023-05-17T04:10:32;24.50;;;20.53;;
739;SDS011;354;42.694;23.336;2023-05-17T04:13:59;24.47;;;19.93;;
739;SDS011;354;42.694;23.336;2023-05-17T04:17:28;25.63;;;19.57;;
739;SDS011;354;42.694;23.336;2023-05-17T04:20:56;21.70;;;19.30;;
739;SDS011;354;42.694;23.336;2023-05-17T04:24:24;20.97;;;18.67;;
739;SDS011;354;42.694;23.336;2023-05-17T04:27:54;21.17;;;18.53;;
739;SDS011;354;42.694;23.336;2023-05-17T04:31:21;23.10;;;18.47;;
739;SDS011;354;42.694;23.336;2023-05-17T04:34:52;24.70;;;19.53;;
739;SDS011;354;42.694;23.336;2023-05-17T04:38:19;26.60;;;19.93;;
739;SDS011;354;42.694;23.336;2023-05-17T04:41:46;22.00;;;18.97;;
739;SDS011;354;42.694;23.336;2023-05-17T04:45:14;21.92;;;19.67;;
739;SDS011;354;42.694;23.336;2023-05-17T04:48:42;22.85;;;17.77;;
739;SDS011;354;42.694;23.336;2023-05-17T04:52:16;21.70;;;19.38;;
739;SDS011;354;42.694;23.336;2023-05-17T04:55:44;23.70;;;19.02;;
739;SDS011;354;42.694;23.336;2023-05-17T05:03:01;24.90;;;19.38;;
739;SDS011;354;42.694;23.336;2023-05-17T05:06:31;18.90;;;17.08;;
739;SDS011;354;42.694;23.336;2023-05-17T05:09:59;20.50;;;16.33;;
739;SDS011;354;42.694;23.336;2023-05-17T05:13:27;20.48;;;17.17;;
739;SDS011;354;42.694;23.336;2023-05-17T05:16:57;18.70;;;16.67;;
739;SDS011;354;42.694;23.336;2023-05-17T05:20:25;19.38;;;16.13;;
739;SDS011;354;42.694;23.336;2023-05-17T05:23:58;20.63;;;17.63;;
739;SDS011;354;42.694;23.336;2023-05-17T05:27:23;19.60;;;15.82;;
739;SDS011;354;42.694;23.336;2023-05-17T05:31:02;17.90;;;16.02;;
739;SDS011;354;42.694;23.336;2023-05-17T05:34:35;19.60;;;17.30;;
739;SDS011;354;42.694;23.336;2023-05-17T05:38:04;18.67;;;15.00;;
739;SDS011;354;42.694;23.336;2023-05-17T05:41:29;21.42;;;15.38;;
739;SDS011;354;42.694;23.336;2023-05-17T05:44:54;24.48;;;17.40;;
739;SDS011;354;42.694;23.336;2023-05-17T05:48:24;17.00;;;15.23;;
739;SDS011;354;42.694;23.336;2023-05-17T05:51:57;14.80;;;13.27;;
739;SDS011;354;42.694;23.336;2023-05-17T05:55:28;16.23;;;13.25;;
739;SDS011;354;42.694;23.336;2023-05-17T05:58:59;18.58;;;13.43;;
739;SDS011;354;42.694;23.336;2023-05-17T06:02:28;19.02;;;14.05;;
739;SDS011;354;42.694;23.336;2023-05-17T06:05:57;16.23;;;13.75;;
739;SDS011;354;42.694;23.336;2023-05-17T06:09:25;17.55;;;14.00;;
739;SDS011;354;42.694;23.336;2023-05-17T06:12:54;24.92;;;18.75;;
739;SDS011;354;42.694;23.336;2023-05-17T06:16:23;16.45;;;12.45;;
739;SDS011;354;42.694;23.336;2023-05-17T06:19:58;18.70;;;12.57;;
739;SDS011;354;42.694;23.336;2023-05-17T06:23:30;17.65;;;15.88;;
739;SDS011;354;42.694;23.336;2023-05-17T06:26:59;15.10;;;13.40;;
739;SDS011;354;42.694;23.336;2023-05-17T06:30:29;15.30;;;12.80;;
739;SDS011;354;42.694;23.336;2023-05-17T06:34:00;15.13;;;12.55;;
739;SDS011;354;42.694;23.336;2023-05-17T06:37:27;15.80;;;12.35;;
739;SDS011;354;42.694;23.336;2023-05-17T06:40:55;15.45;;;12.38;;
739;SDS011;354;42.694;23.336;2023-05-17T06:44:28;14.05;;;12.63;;
739;SDS011;354;42.694;23.336;2023-05-17T06:47:53;15.70;;;12.77;;
739;SDS011;354;42.694;23.336;2023-05-17T06:51:25;16.42;;;12.32;;
739;SDS011;354;42.694;23.336;2023-05-17T06:54:53;14.02;;;12.63;;
739;SDS011;354;42.694;23.336;2023-05-17T06:58:27;16.17;;;13.73;;
739;SDS011;354;42.694;23.336;2023-05-17T07:01:52;22.05;;;14.45;;
739;SDS011;354;42.694;23.336;2023-05-17T07:05:25;16.52;;;14.77;;
739;SDS011;354;42.694;23.336;2023-05-17T07:08:56;16.13;;;14.20;;
739;SDS011;354;42.694;23.336;2023-05-17T07:12:25;14.82;;;13.20;;
739;SDS011;354;42.694;23.336;2023-05-17T07:15:52;16.98;;;13.48;;
739;SDS011;354;42.694;23.336;2023-05-17T07:19:50;19.63;;;14.88;;
739;SDS011;354;42.694;23.336;2023-05-17T07:23:20;15.75;;;13.85;;
739;SDS011;354;42.694;23.336;2023-05-17T07:26:49;17.63;;;13.65;;
739;SDS011;354;42.694;23.336;2023-05-17T07:30:16;20.48;;;14.02;;
739;SDS011;354;42.694;23.336;2023-05-17T07:33:56;15.15;;;13.57;;
739;SDS011;354;42.694;23.336;2023-05-17T07:37:45;14.93;;;13.30;;
739;SDS011;354;42.694;23.336;2023-05-17T07:41:32;17.05;;;15.25;;
739;SDS011;354;42.694;23.336;2023-05-17T07:44:57;16.00;;;14.00;;
739;SDS011;354;42.694;23.336;2023-05-17T07:48:27;19.38;;;14.68;;
739;SDS011;354;42.694;23.336;2023-05-17T07:52:07;19.48;;;16.33;;
739;SDS011;354;42.694;23.336;2023-05-17T07:55:44;17.90;;;14.50;;
739;SDS011;354;42.694;23.336;2023-05-17T07:59:12;22.10;;;15.00;;
739;SDS011;354;42.694;23.336;2023-05-17T08:02:39;19.73;;;14.00;;
739;SDS011;354;42.694;23.336;2023-05-17T08:06:09;19.65;;;15.25;;
739;SDS011;354;42.694;23.336;2023-05-17T08:09:41;16.92;;;13.85;;
739;SDS011;354;42.694;23.336;2023-05-17T08:13:17;18.00;;;13.98;;
739;SDS011;354;42.694;23.336;2023-05-17T08:16:56;21.85;;;15.75;;
739;SDS011;354;42.694;23.336;2023-05-17T08:20:23;17.08;;;14.13;;
739;SDS011;354;42.694;23.336;2023-05-17T08:24:04;16.55;;;14.40;;
739;SDS011;354;42.694;23.336;2023-05-17T08:27:35;19.30;;;13.75;;
739;SDS011;354;42.694;23.336;2023-05-17T08:31:05;20.25;;;14.27;;
739;SDS011;354;42.694;23.336;2023-05-17T08:34:39;17.48;;;14.82;;
739;SDS011;354;42.694;23.336;2023-05-17T08:38:13;18.88;;;14.60;;
739;SDS011;354;42.694;23.336;2023-05-17T08:41:40;18.35;;;14.27;;
739;SDS011;354;42.694;23.336;2023-05-17T08:45:20;19.05;;;15.38;;
739;SDS011;354;42.694;23.336;2023-05-17T08:48:49;17.45;;;15.05;;
739;SDS011;354;42.694;23.336;2023-05-17T08:52:19;16.38;;;14.65;;
739;SDS011;354;42.694;23.336;2023-05-17T08:55:54;16.83;;;14.95;;
739;SDS011;354;42.694;23.336;2023-05-17T08:59:36;17.83;;;15.18;;
739;SDS011;354;42.694;23.336;2023-05-17T09:03:08;22.98;;;15.52;;
739;SDS011;354;42.694;23.336;2023-05-17T09:06:43;20.73;;;14.32;;
739;SDS011;354;42.694;23.336;2023-05-17T09:10:18;17.63;;;14.10;;
739;SDS011;354;42.694;23.336;2023-05-17T09:13:47;15.95;;;13.98;;
739;SDS011;354;42.694;23.336;2023-05-17T09:17:19;17.02;;;14.05;;
739;SDS011;354;42.694;23.336;2023-05-17T09:20:49;24.70;;;15.65;;
739;SDS011;354;42.694;23.336;2023-05-17T09:24:49;25.35;;;19.95;;
739;SDS011;354;42.694;23.336;2023-05-17T09:28:07;18.00;;;15.35;;
739;SDS011;354;42.694;23.336;2023-05-17T09:31:34;18.80;;;13.43;;
739;SDS011;354;42.694;23.336;2023-05-17T09:35:03;19.38;;;15.90;;
739;SDS011;354;42.694;23.336;2023-05-17T09:38:38;18.08;;;14.73;;
739;SDS011;354;42.694;23.336;2023-05-17T09:42:12;16.85;;;13.70;;
739;SDS011;354;42.694;23.336;2023-05-17T09:45:53;24.83;;;14.93;;
739;SDS011;354;42.694;23.336;2023-05-17T09:49:24;14.50;;;12.68;;
739;SDS011;354;42.694;23.336;2023-05-17T09:52:51;16.50;;;13.05;;
739;SDS011;354;42.694;23.336;2023-05-17T09:56:21;16.30;;;12.73;;
739;SDS011;354;42.694;23.336;2023-05-17T09:59:49;20.15;;;13.50;;
739;SDS011;354;42.694;23.336;2023-05-17T10:03:20;18.42;;;12.27;;
739;SDS011;354;42.694;23.336;2023-05-17T10:06:51;15.02;;;11.23;;
739;SDS011;354;42.694;23.336;2023-05-17T10:10:26;20.40;;;12.35;;
739;SDS011;354;42.694;23.336;2023-05-17T10:17:37;16.05;;;11.73;;
739;SDS011;354;42.694;23.336;2023-05-17T10:21:08;11.77;;;9.73;;
739;SDS011;354;42.694;23.336;2023-05-17T10:24:38;12.85;;;11.20;;
739;SDS011;354;42.694;23.336;2023-05-17T10:28:07;17.35;;;12.23;;
739;SDS011;354;42.694;23.336;2023-05-17T10:31:40;18.02;;;13.55;;
739;SDS011;354;42.694;23.336;2023-05-17T10:35:16;18.83;;;10.85;;
739;SDS011;354;42.694;23.336;2023-05-17T10:38:41;15.18;;;10.85;;
739;SDS011;354;42.694;23.336;2023-05-17T10:42:14;13.70;;;11.38;;
739;SDS011;354;42.694;23.336;2023-05-17T10:45:59;17.27;;;11.23;;
739;SDS011;354;42.694;23.336;2023-05-17T10:49:30;21.40;;;17.45;;
739;SDS011;354;42.694;23.336;2023-05-17T10:52:58;22.15;;;15.82;;
739;SDS011;354;42.694;23.336;2023-05-17T10:56:29;18.45;;;13.55;;
739;SDS011;354;42.694;23.336;2023-05-17T11:00:06;17.42;;;10.90;;
739;SDS011;354;42.694;23.336;2023-05-17T11:03:38;12.27;;;9.80;;
739;SDS011;354;42.694;23.336;2023-05-17T11:07:20;12.30;;;9.35;;
739;SDS011;354;42.694;23.336;2023-05-17T11:14:17;20.80;;;11.02;;
739;SDS011;354;42.694;23.336;2023-05-17T11:17:53;16.27;;;9.93;;
739;SDS011;354;42.694;23.336;2023-05-17T11:21:31;13.02;;;11.05;;
739;SDS011;354;42.694;23.336;2023-05-17T11:25:11;17.77;;;11.45;;
739;SDS011;354;42.694;23.336;2023-05-17T11:28:36;18.90;;;11.40;;
739;SDS011;354;42.694;23.336;2023-05-17T11:32:16;20.70;;;11.57;;
739;SDS011;354;42.694;23.336;2023-05-17T11:35:44;22.75;;;12.00;;
739;SDS011;354;42.694;23.336;2023-05-17T11:39:12;17.92;;;12.48;;
739;SDS011;354;42.694;23.336;2023-05-17T11:42:40;18.52;;;12.90;;
739;SDS011;354;42.694;23.336;2023-05-17T11:46:26;16.30;;;12.40;;
739;SDS011;354;42.694;23.336;2023-05-17T11:49:55;19.45;;;13.63;;
739;SDS011;354;42.694;23.336;2023-05-17T11:53:21;13.60;;;11.35;;
739;SDS011;354;42.694;23.336;2023-05-17T11:56:52;17.73;;;11.05;;
739;SDS011;354;42.694;23.336;2023-05-17T12:00:34;17.90;;;12.93;;
739;SDS011;354;42.694;23.336;2023-05-17T12:04:22;17.90;;;12.38;;
739;SDS011;354;42.694;23.336;2023-05-17T12:07:45;15.13;;;11.45;;
739;SDS011;354;42.694;23.336;2023-05-17T12:11:17;15.20;;;11.35;;
739;SDS011;354;42.694;23.336;2023-05-17T12:14:47;14.88;;;10.88;;
739;SDS011;354;42.694;23.336;2023-05-17T12:22:13;15.52;;;11.52;;
739;SDS011;354;42.694;23.336;2023-05-17T12:25:44;15.65;;;10.65;;
739;SDS011;354;42.694;23.336;2023-05-17T12:29:13;13.05;;;10.63;;
739;SDS011;354;42.694;23.336;2023-05-17T12:32:54;12.27;;;10.68;;
739;SDS011;354;42.694;23.336;2023-05-17T12:36:37;13.52;;;10.70;;
739;SDS011;354;42.694;23.336;2023-05-17T12:40:04;14.70;;;11.13;;
739;SDS011;354;42.694;23.336;2023-05-17T12:43:37;16.73;;;14.88;;
739;SDS011;354;42.694;23.336;2023-05-17T12:47:05;14.10;;;11.50;;
739;SDS011;354;42.694;23.336;2023-05-17T12:50:41;13.77;;;11.98;;
739;SDS011;354;42.694;23.336;2023-05-17T12:54:27;13.68;;;12.10;;
739;SDS011;354;42.694;23.336;2023-05-17T12:58:10;13.13;;;10.82;;
739;SDS011;354;42.694;23.336;2023-05-17T13:05:40;15.02;;;11.30;;
739;SDS011;354;42.694;23.336;2023-05-17T13:09:46;14.60;;;12.88;;
739;SDS011;354;42.694;23.336;2023-05-17T13:13:05;12.43;;;11.00;;
739;SDS011;354;42.694;23.336;2023-05-17T13:16:39;22.08;;;16.42;;
739;SDS011;354;42.694;23.336;2023-05-17T13:19:54;13.45;;;11.02;;
739;SDS011;354;42.694;23.336;2023-05-17T13:23:26;18.45;;;13.05;;
739;SDS011;354;42.694;23.336;2023-05-17T13:26:55;14.63;;;10.80;;
739;SDS011;354;42.694;23.336;2023-05-17T13:30:26;18.30;;;11.55;;
739;SDS011;354;42.694;23.336;2023-05-17T13:33:52;19.13;;;12.85;;
739;SDS011;354;42.694;23.336;2023-05-17T13:37:19;12.18;;;10.85;;
739;SDS011;354;42.694;23.336;2023-05-17T13:40:47;15.90;;;10.68;;
739;SDS011;354;42.694;23.336;2023-05-17T13:44:16;14.13;;;10.95;;
739;SDS011;354;42.694;23.336;2023-05-17T13:47:41;22.65;;;20.20;;
739;SDS011;354;42.694;23.336;2023-05-17T13:51:09;13.30;;;9.65;;
739;SDS011;354;42.694;23.336;2023-05-17T13:54:54;11.38;;;9.80;;
739;SDS011;354;42.694;23.336;2023-05-17T13:58:29;13.32;;;10.00;;
739;SDS011;354;42.694;23.336;2023-05-17T14:02:05;14.40;;;9.75;;
739;SDS011;354;42.694;23.336;2023-05-17T14:05:29;11.25;;;9.32;;
739;SDS011;354;42.694;23.336;2023-05-17T14:08:56;9.65;;;8.70;;
739;SDS011;354;42.694;23.336;2023-05-17T14:12:21;10.55;;;8.10;;
739;SDS011;354;42.694;23.336;2023-05-17T14:15:53;9.55;;;8.63;;
739;SDS011;354;42.694;23.336;2023-05-17T14:19:29;15.18;;;10.40;;
739;SDS011;354;42.694;23.336;2023-05-17T14:23:14;13.93;;;8.85;;
739;SDS011;354;42.694;23.336;2023-05-17T14:26:47;11.05;;;8.10;;
739;SDS011;354;42.694;23.336;2023-05-17T14:30:14;12.63;;;8.85;;
739;SDS011;354;42.694;23.336;2023-05-17T14:33:41;11.35;;;8.73;;
739;SDS011;354;42.694;23.336;2023-05-17T14:37:08;10.38;;;9.32;;
739;SDS011;354;42.694;23.336;2023-05-17T14:40:45;9.93;;;8.38;;
739;SDS011;354;42.694;23.336;2023-05-17T14:44:16;12.00;;;9.27;;
739;SDS011;354;42.694;23.336;2023-05-17T14:47:49;10.85;;;8.63;;
739;SDS011;354;42.694;23.336;2023-05-17T14:51:22;13.10;;;8.90;;
739;SDS011;354;42.694;23.336;2023-05-17T14:54:52;16.02;;;14.38;;
739;SDS011;354;42.694;23.336;2023-05-17T14:58:26;9.38;;;8.00;;
739;SDS011;354;42.694;23.336;2023-05-17T15:01:58;12.13;;;8.40;;
739;SDS011;354;42.694;23.336;2023-05-17T15:05:34;18.20;;;16.60;;
739;SDS011;354;42.694;23.336;2023-05-17T15:09:16;20.17;;;18.13;;
739;SDS011;354;42.694;23.336;2023-05-17T15:12:56;19.47;;;17.57;;
739;SDS011;354;42.694;23.336;2023-05-17T15:16:27;22.90;;;20.70;;
739;SDS011;354;42.694;23.336;2023-05-17T15:19:58;24.00;;;22.20;;
739;SDS011;354;42.694;23.336;2023-05-17T15:23:40;25.63;;;23.27;;
739;SDS011;354;42.694;23.336;2023-05-17T15:27:08;23.03;;;21.00;;
739;SDS011;354;42.694;23.336;2023-05-17T15:34:24;31.97;;;29.17;;
739;SDS011;354;42.694;23.336;2023-05-17T15:37:56;25.93;;;23.93;;
739;SDS011;354;42.694;23.336;2023-05-17T15:41:42;26.60;;;24.40;;
739;SDS011;354;42.694;23.336;2023-05-17T15:45:12;23.30;;;21.63;;
739;SDS011;354;42.694;23.336;2023-05-17T15:48:55;25.53;;;23.60;;
739;SDS011;354;42.694;23.336;2023-05-17T15:52:20;28.50;;;26.27;;
739;SDS011;354;42.694;23.336;2023-05-17T15:55:46;25.63;;;23.10;;
739;SDS011;354;42.694;23.336;2023-05-17T15:59:29;23.33;;;21.53;;
739;SDS011;354;42.694;23.336;2023-05-17T16:03:08;35.60;;;32.03;;
739;SDS011;354;42.694;23.336;2023-05-17T16:06:41;29.13;;;26.47;;
739;SDS011;354;42.694;23.336;2023-05-17T16:10:15;33.93;;;30.47;;
739;SDS011;354;42.694;23.336;2023-05-17T16:13:48;26.97;;;24.80;;
739;SDS011;354;42.694;23.336;2023-05-17T16:17:43;29.50;;;26.77;;
739;SDS011;354;42.694;23.336;2023-05-17T16:21:19;28.00;;;25.13;;
739;SDS011;354;42.694;23.336;2023-05-17T16:24:45;36.03;;;31.93;;
739;SDS011;354;42.694;23.336;2023-05-17T16:28:12;24.10;;;21.80;;
739;SDS011;354;42.694;23.336;2023-05-17T16:31:37;26.27;;;23.47;;
739;SDS011;354;42.694;23.336;2023-05-17T16:35:10;28.33;;;25.83;;
739;SDS011;354;42.694;23.336;2023-05-17T16:38:37;25.67;;;23.13;;
739;SDS011;354;42.694;23.336;2023-05-17T16:42:05;27.67;;;24.93;;
739;SDS011;354;42.694;23.336;2023-05-17T16:45:34;25.40;;;23.00;;
739;SDS011;354;42.694;23.336;2023-05-17T16:49:01;31.37;;;28.13;;
739;SDS011;354;42.694;23.336;2023-05-17T16:52:26;29.00;;;25.23;;
739;SDS011;354;42.694;23.336;2023-05-17T16:56:03;21.93;;;19.93;;
739;SDS011;354;42.694;23.336;2023-05-17T16:59:39;20.67;;;18.67;;
739;SDS011;354;42.694;23.336;2023-05-17T17:03:15;26.57;;;23.97;;
739;SDS011;354;42.694;23.336;2023-05-17T17:06:43;24.03;;;21.53;;
739;SDS011;354;42.694;23.336;2023-05-17T17:10:27;39.63;;;35.97;;
739;SDS011;354;42.694;23.336;2023-05-17T17:14:00;24.43;;;22.30;;
739;SDS011;354;42.694;23.336;2023-05-17T17:17:28;25.23;;;22.47;;
739;SDS011;354;42.694;23.336;2023-05-17T17:20:58;25.27;;;22.97;;
739;SDS011;354;42.694;23.336;2023-05-17T17:24:31;28.50;;;25.90;;
739;SDS011;354;42.694;23.336;2023-05-17T17:28:04;20.20;;;18.67;;
739;SDS011;354;42.694;23.336;2023-05-17T17:31:42;17.50;;;16.30;;
739;SDS011;354;42.694;23.336;2023-05-17T17:35:19;16.17;;;15.07;;
739;SDS011;354;42.694;23.336;2023-05-17T17:39:06;17.13;;;15.87;;
739;SDS011;354;42.694;23.336;2023-05-17T17:42:39;19.83;;;18.03;;
739;SDS011;354;42.694;23.336;2023-05-17T17:46:13;16.93;;;15.77;;
739;SDS011;354;42.694;23.336;2023-05-17T17:49:59;16.67;;;15.67;;
739;SDS011;354;42.694;23.336;2023-05-17T17:53:36;20.80;;;19.23;;
739;SDS011;354;42.694;23.336;2023-05-17T17:57:03;16.70;;;15.53;;
739;SDS011;354;42.694;23.336;2023-05-17T18:00:50;16.83;;;15.73;;
739;SDS011;354;42.694;23.336;2023-05-17T18:04:23;18.43;;;17.17;;
739;SDS011;354;42.694;23.336;2023-05-17T18:07:50;18.73;;;17.53;;
739;SDS011;354;42.694;23.336;2023-05-17T18:18:31;19.00;;;17.67;;
739;SDS011;354;42.694;23.336;2023-05-17T18:22:03;20.07;;;18.47;;
739;SDS011;354;42.694;23.336;2023-05-17T18:25:36;17.93;;;16.57;;
739;SDS011;354;42.694;23.336;2023-05-17T18:29:09;18.43;;;16.87;;
739;SDS011;354;42.694;23.336;2023-05-17T18:32:41;19.10;;;17.87;;
739;SDS011;354;42.694;23.336;2023-05-17T18:36:12;19.80;;;18.30;;
739;SDS011;354;42.694;23.336;2023-05-17T18:43:15;20.43;;;18.63;;
739;SDS011;354;42.694;23.336;2023-05-17T18:46:51;18.47;;;17.03;;
739;SDS011;354;42.694;23.336;2023-05-17T18:50:17;18.20;;;16.90;;
739;SDS011;354;42.694;23.336;2023-05-17T18:53:52;18.63;;;17.23;;
739;SDS011;354;42.694;23.336;2023-05-17T18:57:24;20.20;;;18.43;;
739;SDS011;354;42.694;23.336;2023-05-17T19:01:03;20.97;;;19.07;;
739;SDS011;354;42.694;23.336;2023-05-17T19:04:35;21.90;;;19.83;;
739;SDS011;354;42.694;23.336;2023-05-17T19:08:09;24.27;;;22.10;;
739;SDS011;354;42.694;23.336;2023-05-17T19:11:35;23.77;;;21.97;;
739;SDS011;354;42.694;23.336;2023-05-17T19:15:13;24.50;;;22.43;;
739;SDS011;354;42.694;23.336;2023-05-17T19:18:47;22.87;;;21.37;;
739;SDS011;354;42.694;23.336;2023-05-17T19:22:23;23.17;;;21.47;;
739;SDS011;354;42.694;23.336;2023-05-17T19:26:11;24.83;;;22.73;;
739;SDS011;354;42.694;23.336;2023-05-17T19:29:37;25.30;;;23.40;;
739;SDS011;354;42.694;23.336;2023-05-17T19:33:11;27.07;;;24.77;;
739;SDS011;354;42.694;23.336;2023-05-17T19:40:14;32.97;;;29.53;;
739;SDS011;354;42.694;23.336;2023-05-17T19:43:45;32.80;;;30.30;;
739;SDS011;354;42.694;23.336;2023-05-17T19:47:18;37.07;;;33.83;;
739;SDS011;354;42.694;23.336;2023-05-17T19:50:49;37.43;;;34.83;;
739;SDS011;354;42.694;23.336;2023-05-17T19:54:17;35.63;;;33.10;;
739;SDS011;354;42.694;23.336;2023-05-17T19:57:45;40.20;;;37.03;;
739;SDS011;354;42.694;23.336;2023-05-17T20:01:12;35.27;;;33.07;;
739;SDS011;354;42.694;23.336;2023-05-17T20:04:38;35.07;;;32.47;;
739;SDS011;354;42.694;23.336;2023-05-17T20:08:14;38.23;;;35.57;;
739;SDS011;354;42.694;23.336;2023-05-17T20:11:43;36.37;;;33.70;;
739;SDS011;354;42.694;23.336;2023-05-17T20:15:08;36.20;;;33.53;;
739;SDS011;354;42.694;23.336;2023-05-17T20:18:33;34.03;;;31.43;;
739;SDS011;354;42.694;23.336;2023-05-17T20:22:05;34.50;;;32.07;;
739;SDS011;354;42.694;23.336;2023-05-17T20:25:34;34.77;;;32.27;;
739;SDS011;354;42.694;23.336;2023-05-17T20:29:06;35.37;;;33.03;;
739;SDS011;354;42.694;23.336;2023-05-17T20:32:33;35.50;;;32.90;;
739;SDS011;354;42.694;23.336;2023-05-17T20:35:59;36.23;;;33.77;;
739;SDS011;354;42.694;23.336;2023-05-17T20:39:24;33.67;;;31.17;;
739;SDS011;354;42.694;23.336;2023-05-17T20:42:51;33.93;;;31.63;;
739;SDS011;354;42.694;23.336;2023-05-17T20:46:16;32.10;;;30.10;;
739;SDS011;354;42.694;23.336;2023-05-17T20:49:47;33.73;;;31.63;;
739;SDS011;354;42.694;23.336;2023-05-17T20:53:14;33.30;;;31.20;;
739;SDS011;354;42.694;23.336;2023-05-17T20:56:43;29.77;;;27.97;;
739;SDS011;354;42.694;23.336;2023-05-17T21:00:09;29.37;;;27.37;;
739;SDS011;354;42.694;23.336;2023-05-17T21:03:38;29.20;;;27.23;;
739;SDS011;354;42.694;23.336;2023-05-17T21:07:05;28.67;;;26.97;;
739;SDS011;354;42.694;23.336;2023-05-17T21:10:30;27.27;;;25.57;;
739;SDS011;354;42.694;23.336;2023-05-17T21:14:10;26.60;;;24.77;;
739;SDS011;354;42.694;23.336;2023-05-17T21:17:36;26.30;;;24.57;;
739;SDS011;354;42.694;23.336;2023-05-17T21:21:13;28.10;;;26.33;;
739;SDS011;354;42.694;23.336;2023-05-17T21:24:46;26.80;;;25.27;;
739;SDS011;354;42.694;23.336;2023-05-17T21:28:20;27.07;;;25.37;;
739;SDS011;354;42.694;23.336;2023-05-17T21:31:48;23.80;;;22.40;;
739;SDS011;354;42.694;23.336;2023-05-17T21:35:14;22.37;;;20.97;;
739;SDS011;354;42.694;23.336;2023-05-17T21:38:52;22.13;;;20.63;;
739;SDS011;354;42.694;23.336;2023-05-17T21:42:20;23.23;;;21.63;;
739;SDS011;354;42.694;23.336;2023-05-17T21:45:47;20.80;;;19.50;;
739;SDS011;354;42.694;23.336;2023-05-17T21:49:14;22.03;;;20.43;;
739;SDS011;354;42.694;23.336;2023-05-17T21:52:45;21.70;;;20.10;;
739;SDS011;354;42.694;23.336;2023-05-17T21:56:11;21.50;;;20.03;;
739;SDS011;354;42.694;23.336;2023-05-17T21:59:43;20.10;;;18.50;;
739;SDS011;354;42.694;23.336;2023-05-17T22:03:12;20.83;;;19.57;;
739;SDS011;354;42.694;23.336;2023-05-17T22:06:40;22.57;;;20.97;;
739;SDS011;354;42.694;23.336;2023-05-17T22:10:11;22.73;;;21.03;;
739;SDS011;354;42.694;23.336;2023-05-17T22:13:38;23.57;;;21.83;;